createdAt,value
2023-05-20T00:01:03.840Z,51931.10
2023-05-20T00:03:35.516Z,51947.58
2023-05-20T00:06:05.489Z,51947.98
2023-05-20T00:08:36.957Z,51949.19
2023-05-20T00:11:08.562Z,51933.51
2023-05-20T00:13:39.939Z,51943.16
2023-05-20T00:16:11.374Z,51935.12
2023-05-20T00:18:42.762Z,51936.32
2023-05-20T00:21:14.323Z,51940.75
2023-05-20T00:23:45.814Z,51936.32
2023-05-20T00:26:17.373Z,51937.13
2023-05-20T00:28:49.705Z,51946.37
2023-05-20T00:31:22.124Z,51944.77
2023-05-20T00:33:53.673Z,51952.80
2023-05-20T00:36:25.062Z,51955.21
2023-05-20T00:38:56.519Z,51944.37
2023-05-20T00:41:26.613Z,51957.62
2023-05-20T00:43:58.265Z,51966.87
2023-05-20T00:46:29.898Z,51957.62
2023-05-20T00:48:59.879Z,51956.82
2023-05-20T00:51:31.382Z,51970.48
2023-05-20T00:54:03.405Z,51971.69
2023-05-20T00:56:34.816Z,51973.30
2023-05-20T00:59:06.629Z,51966.46
2023-05-20T01:01:38.340Z,51961.64
2023-05-20T01:04:08.409Z,51973.29
2023-05-20T01:06:40.444Z,51972.89
2023-05-20T01:09:12.189Z,51966.46
2023-05-20T01:11:43.202Z,51967.66
2023-05-20T01:14:14.644Z,51966.87
2023-05-20T01:16:46.111Z,51962.85
2023-05-20T01:19:23.755Z,51959.63
2023-05-20T01:21:55.298Z,51971.29
2023-05-20T01:24:26.755Z,51959.23
2023-05-20T01:26:58.504Z,51968.47
2023-05-20T01:29:28.334Z,51964.46
2023-05-20T01:31:59.805Z,51956.01
2023-05-20T01:34:31.315Z,51983.34
2023-05-20T01:37:02.829Z,51978.52
2023-05-20T01:39:34.342Z,51971.29
2023-05-20T01:42:06.579Z,51978.92
2023-05-20T01:44:38.184Z,51974.50
2023-05-20T01:47:09.622Z,51959.63
2023-05-20T01:49:41.856Z,51986.55
2023-05-20T01:52:13.347Z,51973.70
2023-05-20T01:54:51.162Z,51969.68
2023-05-20T01:57:23.030Z,51985.35
2023-05-20T01:59:55.334Z,51982.14
2023-05-20T02:02:26.890Z,51973.29
2023-05-20T02:04:58.403Z,51974.50
2023-05-20T02:07:29.926Z,51974.90
2023-05-20T02:10:01.404Z,51984.14
2023-05-20T02:12:33.245Z,51987.36
2023-05-20T02:15:03.208Z,51969.27
2023-05-20T02:17:34.781Z,51974.10
2023-05-20T02:20:07.920Z,51975.71
2023-05-20T02:22:39.412Z,51977.71
2023-05-20T02:25:12.640Z,51979.32
2023-05-20T02:27:44.071Z,51975.71
2023-05-20T02:30:16.228Z,51984.55
2023-05-20T02:32:48.490Z,51967.67
2023-05-20T02:35:20.359Z,51972.89
2023-05-20T02:37:52.773Z,51969.68
2023-05-20T02:40:24.321Z,51975.71
2023-05-20T02:42:55.808Z,51984.95
2023-05-20T02:45:27.238Z,51982.54
2023-05-20T02:47:58.802Z,51975.71
2023-05-20T02:50:30.330Z,51982.14
2023-05-20T02:53:01.732Z,51977.72
2023-05-20T02:55:33.466Z,51976.11
2023-05-20T02:58:05.504Z,51977.71
2023-05-20T03:00:41.223Z,51984.55
2023-05-20T03:03:13.847Z,51980.53
2023-05-20T03:05:46.453Z,51975.71
2023-05-20T03:08:17.926Z,51986.15
2023-05-20T03:10:49.384Z,51989.77
2023-05-20T03:13:20.859Z,51980.13
2023-05-20T03:15:52.266Z,51970.48
2023-05-20T03:18:24.047Z,51989.37
2023-05-20T03:20:53.812Z,51987.36
2023-05-20T03:23:25.276Z,51987.36
2023-05-20T03:25:57.334Z,51985.35
2023-05-20T03:28:28.932Z,51986.15
2023-05-20T03:30:58.891Z,51997.40
2023-05-20T03:33:31.651Z,51988.16
2023-05-20T03:36:03.161Z,51964.86
2023-05-20T03:38:34.895Z,51976.11
2023-05-20T03:41:06.552Z,51978.12
2023-05-20T03:43:38.393Z,51966.46
2023-05-20T03:46:11.168Z,51984.95
2023-05-20T03:48:42.821Z,51978.92
2023-05-20T03:51:14.304Z,51966.06
2023-05-20T03:53:45.863Z,51973.70
2023-05-20T03:56:17.454Z,51964.85
2023-05-20T03:58:49.111Z,51979.73
2023-05-20T04:01:21.539Z,51981.73
2023-05-20T04:03:53.254Z,51996.60
2023-05-20T04:06:24.996Z,51980.13
2023-05-20T04:08:54.966Z,51986.15
2023-05-20T04:11:26.698Z,51980.93
2023-05-20T04:13:58.792Z,51965.66
2023-05-20T04:16:30.930Z,51977.31
2023-05-20T04:19:02.987Z,51962.04
2023-05-20T04:21:34.859Z,51953.20
2023-05-20T04:24:07.133Z,51949.18
2023-05-20T04:26:38.984Z,51964.05
2023-05-20T04:29:12.198Z,51945.17
2023-05-20T04:31:43.684Z,51949.19
2023-05-20T04:34:15.146Z,51949.18
2023-05-20T04:36:47.357Z,51930.30
2023-05-20T04:39:20.797Z,51937.94
2023-05-20T04:41:55.770Z,51918.24
2023-05-20T04:44:28.509Z,51929.49
2023-05-20T04:47:00.317Z,51925.48
2023-05-20T04:49:31.993Z,51929.90
2023-05-20T04:52:03.443Z,51925.07
2023-05-20T04:54:34.977Z,51917.44
2023-05-20T04:57:04.982Z,51910.61
2023-05-20T04:59:36.753Z,51919.45
2023-05-20T05:02:08.424Z,51919.05
2023-05-20T05:04:39.837Z,51925.07
2023-05-20T05:07:11.335Z,51903.78
2023-05-20T05:09:41.284Z,51895.34
2023-05-20T05:12:12.762Z,51909.00
2023-05-20T05:14:44.298Z,51897.75
2023-05-20T05:17:14.548Z,51906.59
2023-05-20T05:19:46.071Z,51897.75
2023-05-20T05:22:18.128Z,51878.87
2023-05-20T05:24:48.238Z,51892.93
2023-05-20T05:27:21.499Z,51874.04
2023-05-20T05:29:53.019Z,51885.70
2023-05-20T05:32:25.601Z,51880.48
2023-05-20T05:34:57.437Z,51882.88
2023-05-20T05:37:29.316Z,51881.27
2023-05-20T05:40:01.278Z,51871.23
2023-05-20T05:42:32.995Z,51879.27
2023-05-20T05:45:06.892Z,51855.56
2023-05-20T05:47:38.454Z,51861.59
2023-05-20T05:50:08.642Z,51837.07
2023-05-20T05:52:41.488Z,51846.32
2023-05-20T05:55:14.266Z,51836.68
2023-05-20T05:57:47.076Z,51842.70
2023-05-20T06:00:21.504Z,51840.70
2023-05-20T06:02:53.676Z,51843.10
2023-05-20T06:05:34.270Z,51811.76
2023-05-20T06:08:07.116Z,51812.56
2023-05-20T06:10:40.353Z,51812.56
2023-05-20T06:13:12.150Z,51818.99
2023-05-20T06:15:46.297Z,51812.16
2023-05-20T06:18:17.709Z,51804.13
2023-05-20T06:20:47.899Z,51827.43
2023-05-20T06:23:19.544Z,51805.33
2023-05-20T06:26:02.794Z,51804.52
2023-05-20T06:28:34.878Z,51793.28
2023-05-20T06:31:07.734Z,51794.08
2023-05-20T06:33:40.305Z,51782.83
2023-05-20T06:36:15.587Z,51775.20
2023-05-20T06:38:47.345Z,51778.41
2023-05-20T06:41:22.471Z,51779.61
2023-05-20T06:43:55.664Z,51769.17
2023-05-20T06:46:57.691Z,51765.55
2023-05-20T06:49:29.338Z,51778.01
2023-05-20T06:51:59.157Z,51758.72
2023-05-20T06:54:30.949Z,51759.93
2023-05-20T06:57:02.408Z,51751.09
2023-05-20T06:59:33.952Z,51770.77
2023-05-20T07:02:03.774Z,51745.46
2023-05-20T07:04:35.568Z,51743.45
2023-05-20T07:07:08.086Z,51731.80
2023-05-20T07:09:39.781Z,51738.23
2023-05-20T07:12:12.130Z,51722.96
2023-05-20T07:14:42.360Z,51726.18
2023-05-20T07:17:14.356Z,51728.59
2023-05-20T07:19:47.869Z,51727.78
2023-05-20T07:22:19.718Z,51708.90
2023-05-20T07:24:58.193Z,51688.40
2023-05-20T07:27:30.350Z,51692.42
2023-05-20T07:30:02.299Z,51688.40
2023-05-20T07:32:35.356Z,51677.15
2023-05-20T07:35:08.331Z,51675.54
2023-05-20T07:37:39.986Z,51672.73
2023-05-20T07:40:13.541Z,51671.53
2023-05-20T07:42:45.575Z,51663.09
2023-05-20T07:45:17.332Z,51647.02
2023-05-20T07:47:49.145Z,51644.61
2023-05-20T07:50:21.831Z,51659.07
2023-05-20T07:52:56.518Z,51655.46
2023-05-20T07:55:31.460Z,51662.29
2023-05-20T07:58:03.226Z,51642.20
2023-05-20T08:00:37.352Z,51628.13
2023-05-20T08:03:10.715Z,51636.97
2023-05-20T08:05:52.185Z,51645.81
2023-05-20T08:08:23.941Z,51631.35
2023-05-20T08:10:59.195Z,51624.52
2023-05-20T08:13:33.248Z,51621.30
2023-05-20T08:16:06.265Z,51626.93
2023-05-20T08:18:38.765Z,51624.52
2023-05-20T08:21:10.822Z,51630.54
2023-05-20T08:23:42.465Z,51621.70
2023-05-20T08:26:14.447Z,51617.29
2023-05-20T08:28:47.204Z,51624.92
2023-05-20T08:31:20.477Z,51618.09
2023-05-20T08:33:52.319Z,51607.24
2023-05-20T08:36:24.143Z,51614.87
2023-05-20T08:38:56.876Z,51614.07
2023-05-20T08:41:28.420Z,51608.04
2023-05-20T08:43:58.682Z,51596.79
2023-05-20T08:46:30.566Z,51581.93
2023-05-20T08:49:02.278Z,51571.48
2023-05-20T08:51:34.316Z,51581.52
2023-05-20T08:54:05.944Z,51587.95
2023-05-20T08:56:38.599Z,51581.52
2023-05-20T08:59:10.507Z,51565.05
2023-05-20T09:01:44.793Z,51550.99
2023-05-20T09:04:16.671Z,51542.15
2023-05-20T09:06:48.802Z,51553.80
2023-05-20T09:09:20.319Z,51531.30
2023-05-20T09:11:51.900Z,51519.25
2023-05-20T09:14:24.157Z,51507.60
2023-05-20T09:16:55.776Z,51517.64
2023-05-20T09:19:27.562Z,51532.11
2023-05-20T09:21:59.090Z,51507.20
2023-05-20T09:24:30.573Z,51524.07
2023-05-20T09:27:02.124Z,51523.27
2023-05-20T09:29:36.152Z,51540.94
2023-05-20T09:32:09.293Z,51518.45
2023-05-20T09:34:42.229Z,51513.63
2023-05-20T09:37:14.276Z,51537.73
2023-05-20T09:39:49.882Z,51540.95
2023-05-20T09:42:26.647Z,51519.65
2023-05-20T09:44:58.278Z,51545.77
2023-05-20T09:47:29.716Z,51535.72
2023-05-20T09:49:59.665Z,51546.57
2023-05-20T09:52:31.357Z,51540.14
2023-05-20T09:55:06.089Z,51523.27
2023-05-20T09:57:39.152Z,51575.90
2023-05-20T10:00:13.961Z,51584.74
2023-05-20T10:02:47.947Z,51592.77
2023-05-20T10:05:20.717Z,51587.55
2023-05-20T10:08:29.671Z,51591.97
2023-05-20T10:11:04.612Z,51571.88
2023-05-20T10:13:43.366Z,51565.45
2023-05-20T10:16:17.869Z,51530.09
2023-05-20T10:18:57.645Z,51530.09
2023-05-20T10:21:29.037Z,51534.52
2023-05-20T10:24:06.755Z,51512.82
2023-05-20T10:26:43.767Z,51508.40
2023-05-20T10:29:22.985Z,51492.33
2023-05-20T10:31:54.535Z,51481.88
2023-05-20T10:34:26.236Z,51473.45
2023-05-20T10:37:04.563Z,51476.26
2023-05-20T10:39:36.042Z,51486.30
2023-05-20T10:42:11.545Z,51475.05
2023-05-20T10:44:46.798Z,51459.38
2023-05-20T10:47:25.437Z,51471.43
2023-05-20T10:49:58.317Z,51454.56
2023-05-20T10:52:30.367Z,51439.70
2023-05-20T10:55:02.278Z,51448.53
2023-05-20T10:57:34.304Z,51437.68
2023-05-20T11:00:10.965Z,51444.51
2023-05-20T11:02:43.157Z,51458.98
2023-05-20T11:05:16.334Z,51446.52
2023-05-20T11:07:47.880Z,51460.59
2023-05-20T11:10:19.428Z,51453.76
2023-05-20T11:12:51.383Z,51462.20
2023-05-20T11:15:23.923Z,51461.79
2023-05-20T11:17:59.137Z,51455.76
2023-05-20T11:20:31.205Z,51470.23
2023-05-20T11:23:02.652Z,51503.58
2023-05-20T11:25:33.993Z,51470.63
2023-05-20T11:28:05.401Z,51499.96
2023-05-20T11:30:37.391Z,51503.18
2023-05-20T11:33:09.000Z,51515.23
2023-05-20T11:35:40.618Z,51535.32
2023-05-20T11:38:12.033Z,51525.27
2023-05-20T11:40:50.431Z,51496.74
2023-05-20T11:45:54.571Z,51479.07
2023-05-20T11:48:26.742Z,51469.43
2023-05-20T11:51:01.317Z,51435.68
2023-05-20T11:53:33.611Z,51455.76
2023-05-20T11:56:05.361Z,51479.88
2023-05-20T11:58:36.804Z,51496.35
2023-05-20T12:01:21.020Z,51507.99
2023-05-20T12:03:54.304Z,51520.86
2023-05-20T12:06:26.605Z,51497.15
2023-05-20T12:08:58.044Z,51516.84
2023-05-20T12:11:29.660Z,51522.46
2023-05-20T12:14:04.221Z,51532.11
2023-05-20T12:16:36.580Z,51545.77
2023-05-20T12:19:08.990Z,51552.20
2023-05-20T12:21:40.754Z,51530.50
2023-05-20T12:24:12.287Z,51530.50
2023-05-20T12:26:43.911Z,51512.02
2023-05-20T12:29:15.524Z,51501.17
2023-05-20T12:31:47.108Z,51485.10
2023-05-20T12:34:18.663Z,51493.13
2023-05-20T12:36:50.227Z,51489.11
2023-05-20T12:39:22.022Z,51491.12
2023-05-20T12:41:53.574Z,51503.18
2023-05-20T12:44:25.130Z,51513.63
2023-05-20T12:46:57.869Z,51511.61
2023-05-20T12:49:29.359Z,51520.05
2023-05-20T12:52:03.554Z,51519.25
2023-05-20T12:54:37.313Z,51503.18
2023-05-20T12:57:07.488Z,51507.19
2023-05-20T12:59:39.053Z,51503.57
2023-05-20T13:02:11.044Z,51480.27
2023-05-20T13:04:43.043Z,51487.51
2023-05-20T13:07:14.677Z,51462.20
2023-05-20T13:09:47.550Z,51447.32
2023-05-20T13:12:19.306Z,51450.95
2023-05-20T13:14:51.075Z,51456.57
2023-05-20T13:17:22.543Z,51438.49
2023-05-20T13:19:55.238Z,51435.68
2023-05-20T13:22:27.013Z,51438.09
2023-05-20T13:24:58.497Z,51433.27
2023-05-20T13:27:30.154Z,51438.89
2023-05-20T13:30:02.181Z,51447.73
2023-05-20T13:32:33.873Z,51460.59
2023-05-20T13:35:06.068Z,51464.20
2023-05-20T13:37:37.764Z,51447.73
2023-05-20T13:40:13.313Z,51453.76
2023-05-20T13:42:45.556Z,51458.57
2023-05-20T13:45:18.941Z,51436.08
2023-05-20T13:47:50.591Z,51434.07
2023-05-20T13:50:22.523Z,51422.02
2023-05-20T13:52:54.070Z,51405.95
2023-05-20T13:55:25.572Z,51397.51
2023-05-20T13:57:57.119Z,51382.64
2023-05-20T14:00:28.667Z,51365.37
2023-05-20T14:03:01.158Z,51350.90
2023-05-20T14:05:33.035Z,51351.70
2023-05-20T14:08:04.775Z,51359.34
2023-05-20T14:10:36.781Z,51338.04
2023-05-20T14:13:09.137Z,51335.23
2023-05-20T14:15:40.956Z,51340.05
2023-05-20T14:18:12.681Z,51328.00
2023-05-20T14:20:44.393Z,51339.25
2023-05-20T14:23:16.488Z,51334.83
2023-05-20T14:25:48.290Z,51330.01
2023-05-20T14:28:19.882Z,51336.04
2023-05-20T14:30:51.687Z,51350.50
2023-05-20T14:33:23.960Z,51325.99
2023-05-20T14:35:55.964Z,51331.62
2023-05-20T14:38:30.004Z,51327.20
2023-05-20T14:41:02.117Z,51314.34
2023-05-20T14:43:33.751Z,51336.84
2023-05-20T14:46:05.924Z,51322.38
2023-05-20T14:48:37.492Z,51309.52
2023-05-20T14:51:09.190Z,51329.21
2023-05-20T14:53:40.789Z,51321.98
2023-05-20T14:56:12.373Z,51313.54
2023-05-20T14:58:43.873Z,51352.51
2023-05-20T15:01:15.565Z,51361.75
2023-05-20T15:03:47.223Z,51373.00
2023-05-20T15:06:18.736Z,51400.72
2023-05-20T15:08:50.812Z,51434.47
2023-05-20T15:11:22.733Z,51448.53
2023-05-20T15:13:55.857Z,51482.29
2023-05-20T15:16:28.243Z,51501.16
2023-05-20T15:18:59.907Z,51511.21
2023-05-20T15:21:32.158Z,51513.22
2023-05-20T15:24:03.727Z,51525.68
2023-05-20T15:26:35.071Z,51543.76
2023-05-20T15:29:04.935Z,51551.79
2023-05-20T15:31:36.436Z,51554.61
2023-05-20T15:34:08.029Z,51549.38
2023-05-20T15:36:39.770Z,51551.39
2023-05-20T15:39:11.387Z,51542.55
2023-05-20T15:41:42.941Z,51546.97
2023-05-20T15:44:14.591Z,51532.91
2023-05-20T15:46:46.841Z,51532.51
2023-05-20T15:49:18.828Z,51539.34
2023-05-20T15:52:02.353Z,51530.50
2023-05-20T15:54:35.674Z,51519.65
2023-05-20T15:57:07.592Z,51525.27
2023-05-20T15:59:39.077Z,51542.95
2023-05-20T16:02:08.968Z,51535.32
2023-05-20T16:04:40.849Z,51530.09
2023-05-20T16:07:12.344Z,51534.11
2023-05-20T16:09:42.181Z,51534.92
2023-05-20T16:12:16.629Z,51536.52
2023-05-20T16:14:48.430Z,51524.47
2023-05-20T16:17:21.488Z,51526.48
2023-05-20T16:19:53.571Z,51528.89
2023-05-20T16:22:25.258Z,51534.11
2023-05-20T16:24:56.971Z,51536.52
2023-05-20T16:27:28.490Z,51532.91
2023-05-20T16:30:00.051Z,51522.06
2023-05-20T16:32:31.921Z,51533.31
2023-05-20T16:35:03.434Z,51533.30
2023-05-20T16:37:35.705Z,51537.32
2023-05-20T16:40:09.736Z,51527.68
2023-05-20T16:42:42.594Z,51549.38
2023-05-20T16:45:14.786Z,51548.18
2023-05-20T16:47:46.594Z,51549.38
2023-05-20T16:50:18.426Z,51569.47
2023-05-20T16:52:49.941Z,51567.06
2023-05-20T16:55:21.497Z,51563.85
2023-05-20T16:57:51.909Z,51581.93
2023-05-20T17:00:23.435Z,51597.60
2023-05-20T17:02:55.195Z,51599.21
2023-05-20T17:05:27.114Z,51596.39
2023-05-20T17:08:00.634Z,51607.64
2023-05-20T17:10:32.302Z,51617.28
2023-05-20T17:13:04.347Z,51628.54
2023-05-20T17:15:37.457Z,51620.50
2023-05-20T17:18:09.316Z,51634.16
2023-05-20T17:20:41.244Z,51641.39
2023-05-20T17:23:15.057Z,51631.35
2023-05-20T17:25:46.798Z,51654.65
2023-05-20T17:28:18.777Z,51649.03
2023-05-20T17:30:50.241Z,51652.64
2023-05-20T17:33:22.409Z,51643.80
2023-05-20T17:35:53.936Z,51658.67
2023-05-20T17:38:26.685Z,51681.57
2023-05-20T17:40:58.228Z,51665.50
2023-05-20T17:43:28.148Z,51689.61
2023-05-20T17:46:00.079Z,51688.00
2023-05-20T17:48:33.252Z,51690.41
2023-05-20T17:51:04.880Z,51688.00
2023-05-20T17:53:34.731Z,51704.88
2023-05-20T17:56:07.230Z,51703.67
2023-05-20T17:58:38.654Z,51719.34
2023-05-20T18:01:10.089Z,51712.51
2023-05-20T18:03:42.265Z,51716.13
2023-05-20T18:06:13.990Z,51721.75
2023-05-20T18:08:45.418Z,51711.71
2023-05-20T18:11:16.789Z,51717.34
2023-05-20T18:13:48.170Z,51709.70
2023-05-20T18:16:19.684Z,51734.21
2023-05-20T18:18:51.236Z,51734.61
2023-05-20T18:21:22.969Z,51730.59
2023-05-20T18:23:54.504Z,51731.00
2023-05-20T18:26:26.626Z,51735.02
2023-05-20T18:28:58.187Z,51746.66
2023-05-20T18:31:29.724Z,51732.20
2023-05-20T18:33:59.564Z,51735.82
2023-05-20T18:36:31.816Z,51742.24
2023-05-20T18:39:03.484Z,51728.98
2023-05-20T18:41:45.868Z,51738.63
2023-05-20T18:44:18.729Z,51743.45
2023-05-20T18:46:50.450Z,51750.28
2023-05-20T18:49:22.048Z,51730.59
2023-05-20T18:51:52.019Z,51750.28
2023-05-20T18:54:23.920Z,51740.24
2023-05-20T18:56:55.927Z,51741.84
2023-05-20T18:59:27.672Z,51752.29
2023-05-20T19:01:58.534Z,51754.30
2023-05-20T19:04:30.175Z,51740.64
2023-05-20T19:07:02.472Z,51768.76
2023-05-20T19:09:34.210Z,51767.16
2023-05-20T19:12:07.091Z,51758.32
2023-05-20T19:14:39.362Z,51767.96
2023-05-20T19:17:11.230Z,51766.76
2023-05-20T19:19:42.872Z,51771.18
2023-05-20T19:22:13.235Z,51776.80
2023-05-20T19:24:45.060Z,51771.58
2023-05-20T19:27:18.266Z,51771.98
2023-05-20T19:29:50.032Z,51773.59
2023-05-20T19:32:21.781Z,51773.99
2023-05-20T19:34:53.288Z,51791.27
2023-05-20T19:37:25.954Z,51776.00
2023-05-20T19:39:57.871Z,51759.52
2023-05-20T19:42:29.304Z,51789.66
2023-05-20T19:45:00.912Z,51793.68
2023-05-20T19:47:31.020Z,51791.27
2023-05-20T19:50:03.374Z,51790.86
2023-05-20T19:52:37.015Z,51796.89
2023-05-20T19:55:09.859Z,51791.27
2023-05-20T19:57:42.229Z,51816.58
2023-05-20T20:00:15.762Z,51811.76
2023-05-20T20:02:48.400Z,51796.09
2023-05-20T20:05:22.364Z,51804.53
2023-05-20T20:07:56.958Z,51800.51
2023-05-20T20:10:28.323Z,51788.46
2023-05-20T20:12:59.698Z,51791.27
2023-05-20T20:15:32.269Z,51793.68
2023-05-20T20:18:06.766Z,51806.94
2023-05-20T20:20:40.230Z,51825.02
2023-05-20T20:23:11.755Z,51798.10
2023-05-20T20:25:43.632Z,51820.20
2023-05-20T20:28:15.362Z,51813.77
2023-05-20T20:30:46.857Z,51820.60
2023-05-20T20:33:16.901Z,51827.03
2023-05-20T20:35:48.683Z,51829.84
2023-05-20T20:38:20.133Z,51810.55
2023-05-20T20:40:53.746Z,51816.98
2023-05-20T20:43:25.112Z,51818.99
2023-05-20T20:45:57.190Z,51820.20
2023-05-20T20:48:28.734Z,51825.42
2023-05-20T20:51:02.363Z,51827.83
2023-05-20T20:53:33.773Z,51833.05
2023-05-20T20:56:05.666Z,51813.77
2023-05-20T20:58:37.980Z,51825.02
2023-05-20T21:01:11.855Z,51815.38
2023-05-20T21:03:44.854Z,51813.77
2023-05-20T21:06:16.664Z,51810.15
2023-05-20T21:08:48.230Z,51832.26
2023-05-20T21:11:18.181Z,51840.69
2023-05-20T21:13:49.795Z,51832.65
2023-05-20T21:16:19.866Z,51832.26
2023-05-20T21:18:51.527Z,51841.89
2023-05-20T21:21:22.041Z,51837.48
2023-05-20T21:23:54.633Z,51829.44
2023-05-20T21:26:26.892Z,51848.73
2023-05-20T21:28:58.480Z,51828.23
2023-05-20T21:31:30.195Z,51850.34
2023-05-20T21:34:01.892Z,51843.50
2023-05-20T21:36:33.680Z,51844.71
2023-05-20T21:39:05.496Z,51840.69
2023-05-20T21:41:37.071Z,51837.48
2023-05-20T21:44:08.711Z,51842.30
2023-05-20T21:46:38.621Z,51843.51
2023-05-20T21:49:10.281Z,51841.49
2023-05-20T21:51:41.638Z,51850.33
2023-05-20T21:54:13.112Z,51861.18
2023-05-20T21:56:44.554Z,51857.16
2023-05-20T21:59:16.084Z,51862.39
2023-05-20T22:01:47.626Z,51864.80
2023-05-20T22:04:19.706Z,51874.04
2023-05-20T22:06:51.462Z,51857.16
2023-05-20T22:09:23.003Z,51872.44
2023-05-20T22:11:54.758Z,51869.63
2023-05-20T22:14:24.630Z,51869.22
2023-05-20T22:16:56.300Z,51884.89
2023-05-20T22:19:28.390Z,51875.24
2023-05-20T22:22:00.207Z,51881.27
2023-05-20T22:24:30.240Z,51881.27
2023-05-20T22:27:02.060Z,51872.03
2023-05-20T22:29:33.502Z,51886.90
2023-05-20T22:32:05.131Z,51885.70
2023-05-20T22:34:36.589Z,51872.84
2023-05-20T22:37:09.517Z,51889.71
2023-05-20T22:39:40.964Z,51871.63
2023-05-20T22:42:12.490Z,51883.29
2023-05-20T22:44:43.987Z,51868.02
2023-05-20T22:47:16.218Z,51880.88
2023-05-20T22:49:48.009Z,51880.88
2023-05-20T22:52:21.613Z,51892.13
2023-05-20T22:54:53.142Z,51904.58
2023-05-20T22:57:23.113Z,51892.93
2023-05-20T22:59:55.821Z,51892.52
2023-05-20T23:02:30.712Z,51894.54
2023-05-20T23:05:04.109Z,51882.08
2023-05-20T23:07:36.181Z,51893.73
2023-05-20T23:10:08.681Z,51901.77
2023-05-20T23:12:40.095Z,51892.93
2023-05-20T23:15:13.402Z,51899.76
2023-05-20T23:17:45.004Z,51884.09
2023-05-20T23:20:19.373Z,51896.54
2023-05-20T23:22:50.893Z,51906.59
2023-05-20T23:25:23.040Z,51882.88
2023-05-20T23:27:54.538Z,51911.41
2023-05-20T23:30:26.283Z,51902.98
2023-05-20T23:32:58.013Z,51922.26
2023-05-20T23:35:27.835Z,51904.98
2023-05-20T23:37:59.423Z,51898.55
2023-05-20T23:40:31.023Z,51915.03
2023-05-20T23:43:02.492Z,51913.82
2023-05-20T23:45:34.175Z,51929.49
2023-05-20T23:48:07.354Z,51917.44
2023-05-20T23:50:38.869Z,51910.61
2023-05-20T23:53:10.522Z,51923.87
2023-05-20T23:55:40.409Z,51927.89
2023-05-20T23:58:11.863Z,51922.66
